Time,TemperatureF,DewpointF,PressureIn,WindDirection,WindDirectionDegrees,WindSpeedMPH,WindSpeedGustMPH,Humidity,HourlyPrecipIn,Conditions,Clouds,dailyrainin,SoftwareType,DateUTC
2013-02-04 00:03:00,21.6,15.5,29.74,ESE,113,3.6,4.5,77,0.00,,,0.00,WUHU216HW,2013-02-04 06:03:00,
2013-02-04 00:08:00,21.8,15.7,29.74,SE,135,4.0,4.5,77,0.00,,,0.00,WUHU216HW,2013-02-04 06:08:00,
2013-02-04 00:13:00,21.8,15.7,29.73,SE,135,4.0,4.5,77,0.00,,,0.00,WUHU216HW,2013-02-04 06:13:00,
2013-02-04 00:18:00,22.0,15.9,29.73,SE,135,4.0,4.5,77,0.00,,,0.00,WUHU216HW,2013-02-04 06:18:00,
2013-02-04 00:23:00,22.0,15.9,29.72,SE,135,4.0,5.1,77,0.00,,,0.00,WUHU216HW,2013-02-04 06:23:00,
2013-02-04 00:28:00,22.0,15.9,29.72,SE,135,2.9,5.1,77,0.00,,,0.00,WUHU216HW,2013-02-04 06:28:00,
2013-02-04 00:33:00,22.0,15.9,29.72,SE,135,4.7,4.7,77,0.00,,,0.00,WUHU216HW,2013-02-04 06:33:00,
2013-02-04 00:38:00,22.0,15.9,29.72,SE,135,4.5,4.7,77,0.00,,,0.00,WUHU216HW,2013-02-04 06:38:00,
2013-02-04 00:43:00,22.0,15.9,29.71,SE,135,2.9,4.7,77,0.00,,,0.00,WUHU216HW,2013-02-04 06:43:00,
2013-02-04 00:48:00,22.0,15.9,29.71,SE,135,2.9,4.5,77,0.00,,,0.00,WUHU216HW,2013-02-04 06:48:00,
2013-02-04 00:53:00,22.1,16.0,29.71,SSE,158,2.7,3.8,77,0.00,,,0.00,WUHU216HW,2013-02-04 06:53:00,
2013-02-04 00:58:00,22.1,16.0,29.70,SE,135,2.9,3.8,77,0.00,,,0.00,WUHU216HW,2013-02-04 06:58:00,
2013-02-04 01:03:00,22.3,16.2,29.70,SE,135,3.4,4.3,77,0.00,,,0.00,WUHU216HW,2013-02-04 07:03:00,
2013-02-04 01:08:00,22.5,16.4,29.70,SE,135,3.4,4.3,77,0.00,,,0.00,WUHU216HW,2013-02-04 07:08:00,
2013-02-04 01:13:00,22.7,16.6,29.69,SE,135,3.6,4.7,77,0.00,,,0.00,WUHU216HW,2013-02-04 07:13:00,
2013-02-04 01:18:00,23.0,16.9,29.69,SE,135,4.0,5.6,77,0.00,,,0.00,WUHU216HW,2013-02-04 07:18:00,
2013-02-04 01:23:00,23.4,17.3,29.69,SE,135,3.6,5.6,77,0.00,,,0.00,WUHU216HW,2013-02-04 07:23:00,
2013-02-04 01:28:00,23.4,17.3,29.69,SE,135,4.3,6.3,77,0.00,,,0.00,WUHU216HW,2013-02-04 07:28:00,
2013-02-04 01:33:00,23.8,17.7,29.69,SSE,158,4.7,6.3,77,0.00,,,0.00,WUHU216HW,2013-02-04 07:33:00,
2013-02-04 01:38:00,23.8,17.7,29.69,SSE,158,4.7,5.6,77,0.00,,,0.00,WUHU216HW,2013-02-04 07:38:00,
2013-02-04 01:43:00,23.9,17.8,29.69,SSE,158,4.7,5.6,77,0.00,,,0.00,WUHU216HW,2013-02-04 07:43:00,
2013-02-04 01:48:00,24.1,17.9,29.68,SSE,158,5.1,5.6,77,0.00,,,0.00,WUHU216HW,2013-02-04 07:48:00,
2013-02-04 01:53:00,24.1,17.9,29.68,SE,135,4.7,5.6,77,0.00,,,0.00,WUHU216HW,2013-02-04 07:53:00,
2013-02-04 01:58:00,24.1,17.9,29.68,SE,135,3.6,5.4,77,0.00,,,0.00,WUHU216HW,2013-02-04 07:58:00,
2013-02-04 02:03:00,24.1,17.9,29.68,SE,135,4.9,5.4,77,0.00,,,0.00,WUHU216HW,2013-02-04 08:03:00,
2013-02-04 02:08:00,24.1,17.9,29.68,SE,135,3.1,4.9,77,0.00,,,0.00,WUHU216HW,2013-02-04 08:08:00,
2013-02-04 02:13:00,24.1,17.9,29.68,ESE,113,2.9,4.9,77,0.00,,,0.00,WUHU216HW,2013-02-04 08:13:00,
2013-02-04 02:18:00,24.3,18.1,29.68,SSE,158,3.4,4.7,77,0.00,,,0.00,WUHU216HW,2013-02-04 08:18:00,
2013-02-04 02:23:00,24.5,18.3,29.68,SE,135,3.4,4.3,77,0.00,,,0.00,WUHU216HW,2013-02-04 08:23:00,
2013-02-04 02:28:00,24.5,18.6,29.68,SSE,158,3.4,4.0,78,0.00,,,0.00,WUHU216HW,2013-02-04 08:28:00,
2013-02-04 02:33:00,24.7,18.8,29.68,SE,135,1.1,4.5,78,0.00,,,0.00,WUHU216HW,2013-02-04 08:33:00,
2013-02-04 02:38:00,24.7,18.5,29.69,East,90,0.0,4.5,77,0.00,,,0.00,WUHU216HW,2013-02-04 08:38:00,
2013-02-04 02:43:00,24.8,19.0,29.69,NNE,23,0.0,1.6,78,0.00,,,0.00,WUHU216HW,2013-02-04 08:43:00,
2013-02-04 02:48:00,25.0,19.2,29.69,NNE,23,0.2,0.7,78,0.00,,,0.00,WUHU216HW,2013-02-04 08:48:00,
2013-02-04 02:53:00,25.2,19.3,29.70,NNE,23,0.4,0.7,78,0.00,,,0.00,WUHU216HW,2013-02-04 08:53:00,
2013-02-04 02:58:00,25.4,19.2,29.69,NNE,23,0.0,0.9,77,0.00,,,0.00,WUHU216HW,2013-02-04 08:58:00,
2013-02-04 03:03:00,25.6,19.4,29.69,SSE,158,0.0,1.1,77,0.00,,,0.00,WUHU216HW,2013-02-04 09:03:00,
2013-02-04 03:08:00,25.6,19.4,29.69,SSE,158,0.0,1.1,77,0.00,,,0.00,WUHU216HW,2013-02-04 09:08:00,
2013-02-04 03:13:00,25.6,19.4,29.69,SSE,158,0.0,0.0,77,0.00,,,0.00,WUHU216HW,2013-02-04 09:13:00,
2013-02-04 03:18:00,25.6,19.4,29.69,SSE,158,0.0,0.0,77,0.00,,,0.00,WUHU216HW,2013-02-04 09:18:00,
2013-02-04 03:23:00,25.6,19.4,29.69,SSE,158,0.0,0.0,77,0.00,,,0.00,WUHU216HW,2013-02-04 09:23:00,
2013-02-04 03:28:00,25.7,19.5,29.69,SSE,158,0.0,0.0,77,0.00,,,0.00,WUHU216HW,2013-02-04 09:28:00,
2013-02-04 03:33:00,25.9,19.6,29.69,SSE,158,0.0,0.0,77,0.00,,,0.00,WUHU216HW,2013-02-04 09:33:00,
2013-02-04 03:38:00,26.1,19.8,29.69,SSE,158,0.0,0.0,77,0.00,,,0.00,WUHU216HW,2013-02-04 09:38:00,
2013-02-04 03:43:00,26.3,20.0,29.68,SSE,158,0.0,0.0,77,0.00,,,0.00,WUHU216HW,2013-02-04 09:43:00,
2013-02-04 03:48:00,26.3,20.0,29.68,SSE,158,0.7,0.7,77,0.00,,,0.00,WUHU216HW,2013-02-04 09:48:00,
2013-02-04 03:53:00,26.3,20.0,29.68,SSE,158,0.0,0.9,77,0.00,,,0.00,WUHU216HW,2013-02-04 09:53:00,
2013-02-04 03:58:00,26.3,20.0,29.68,SSE,158,0.0,0.9,77,0.00,,,0.00,WUHU216HW,2013-02-04 09:58:00,
2013-02-04 04:03:00,26.1,19.8,29.68,SSE,158,0.0,0.0,77,0.00,,,0.00,WUHU216HW,2013-02-04 10:03:00,
2013-02-04 04:08:00,26.3,20.0,29.68,SE,135,0.0,0.4,77,0.00,,,0.00,WUHU216HW,2013-02-04 10:08:00,
2013-02-04 04:13:00,26.3,20.0,29.68,SE,135,0.0,0.4,77,0.00,,,0.00,WUHU216HW,2013-02-04 10:13:00,
2013-02-04 04:18:00,26.3,20.0,29.69,SE,135,0.0,0.9,77,0.00,,,0.00,WUHU216HW,2013-02-04 10:18:00,
2013-02-04 04:23:00,26.3,19.7,29.68,SE,135,0.0,0.9,76,0.00,,,0.00,WUHU216HW,2013-02-04 10:23:00,
2013-02-04 04:28:00,26.3,19.7,29.68,SE,135,0.0,0.7,76,0.00,,,0.00,WUHU216HW,2013-02-04 10:28:00,
2013-02-04 04:33:00,26.3,19.7,29.68,SE,135,0.0,0.0,76,0.00,,,0.00,WUHU216HW,2013-02-04 10:33:00,
2013-02-04 04:38:00,26.1,19.5,29.68,SE,135,0.0,0.0,76,0.00,,,0.00,WUHU216HW,2013-02-04 10:38:00,
2013-02-04 04:43:00,25.9,19.4,29.68,SE,135,0.0,0.0,76,0.00,,,0.00,WUHU216HW,2013-02-04 10:43:00,
2013-02-04 04:48:00,25.6,19.0,29.68,SE,135,0.0,0.4,76,0.00,,,0.00,WUHU216HW,2013-02-04 10:48:00,
2013-02-04 04:53:00,25.6,19.0,29.68,SE,135,0.2,0.4,76,0.00,,,0.00,WUHU216HW,2013-02-04 10:53:00,
2013-02-04 04:58:00,25.4,19.2,29.67,SE,135,0.7,0.7,77,0.00,,,0.00,WUHU216HW,2013-02-04 10:58:00,
2013-02-04 05:03:00,25.2,19.0,29.67,SE,135,0.0,0.7,77,0.00,,,0.00,WUHU216HW,2013-02-04 11:03:00,
2013-02-04 05:08:00,25.0,18.8,29.68,East,90,0.0,0.9,77,0.00,,,0.00,WUHU216HW,2013-02-04 11:08:00,
2013-02-04 05:13:00,24.8,18.6,29.68,East,90,0.0,0.9,77,0.00,,,0.00,WUHU216HW,2013-02-04 11:13:00,
2013-02-04 05:18:00,24.8,18.6,29.68,East,90,0.0,0.0,77,0.00,,,0.00,WUHU216HW,2013-02-04 11:18:00,
2013-02-04 05:23:00,24.7,18.5,29.69,East,90,0.2,0.2,77,0.00,,,0.00,WUHU216HW,2013-02-04 11:23:00,
2013-02-04 05:28:00,24.5,18.3,29.68,ENE,68,0.0,0.7,77,0.00,,,0.00,WUHU216HW,2013-02-04 11:28:00,
2013-02-04 05:33:00,24.5,18.3,29.68,ENE,68,0.7,0.7,77,0.00,,,0.00,WUHU216HW,2013-02-04 11:33:00,
2013-02-04 05:38:00,24.1,17.9,29.69,NNE,23,1.1,1.1,77,0.00,,,0.00,WUHU216HW,2013-02-04 11:38:00,
2013-02-04 05:43:00,23.8,17.7,29.69,North,0,1.1,1.3,77,0.00,,,0.00,WUHU216HW,2013-02-04 11:43:00,
2013-02-04 05:48:00,23.0,16.9,29.69,North,0,0.2,1.3,77,0.00,,,0.00,WUHU216HW,2013-02-04 11:48:00,
2013-02-04 05:53:00,22.5,16.4,29.69,NNW,338,1.8,2.0,77,0.00,,,0.00,WUHU216HW,2013-02-04 11:53:00,
2013-02-04 05:58:00,22.0,15.9,29.70,NNW,338,1.8,2.2,77,0.00,,,0.00,WUHU216HW,2013-02-04 11:58:00,
2013-02-04 06:03:00,22.0,15.9,29.70,NNW,338,1.6,2.5,77,0.00,,,0.00,WUHU216HW,2013-02-04 12:03:00,
2013-02-04 06:08:00,21.8,15.7,29.70,NW,315,1.6,2.5,77,0.00,,,0.00,WUHU216HW,2013-02-04 12:08:00,
2013-02-04 06:13:00,21.6,15.5,29.71,NNW,338,1.8,2.7,77,0.00,,,0.00,WUHU216HW,2013-02-04 12:13:00,
2013-02-04 06:18:00,21.2,15.1,29.71,NNW,338,1.8,2.7,77,0.00,,,0.00,WUHU216HW,2013-02-04 12:18:00,
2013-02-04 06:23:00,21.1,15.0,29.71,NNW,338,1.1,2.0,77,0.00,,,0.00,WUHU216HW,2013-02-04 12:23:00,
2013-02-04 06:28:00,20.7,14.6,29.71,NNW,338,0.4,2.0,77,0.00,,,0.00,WUHU216HW,2013-02-04 12:28:00,
2013-02-04 06:33:00,20.3,14.5,29.71,NNW,338,0.4,1.6,78,0.00,,,0.00,WUHU216HW,2013-02-04 12:33:00,
2013-02-04 06:38:00,20.2,14.3,29.72,North,0,0.2,0.9,78,0.00,,,0.00,WUHU216HW,2013-02-04 12:38:00,
2013-02-04 06:43:00,20.2,14.3,29.72,NNW,338,0.4,0.7,78,0.00,,,0.00,WUHU216HW,2013-02-04 12:43:00,
2013-02-04 06:48:00,20.2,15.2,29.73,North,0,4.0,4.0,81,0.00,,,0.00,WUHU216HW,2013-02-04 12:48:00,
2013-02-04 06:53:00,20.0,15.3,29.73,North,0,0.4,4.0,82,0.00,,,0.00,WUHU216HW,2013-02-04 12:53:00,
2013-02-04 06:58:00,20.0,15.3,29.73,North,0,1.8,4.0,82,0.00,,,0.00,WUHU216HW,2013-02-04 12:58:00,
2013-02-04 07:03:00,20.2,15.5,29.73,North,0,0.7,4.0,82,0.00,,,0.00,WUHU216HW,2013-02-04 13:03:00,
2013-02-04 07:08:00,20.3,15.7,29.74,North,0,3.1,4.3,82,0.00,,,0.00,WUHU216HW,2013-02-04 13:08:00,
2013-02-04 07:13:00,20.5,15.8,29.74,North,0,1.8,4.3,82,0.00,,,0.00,WUHU216HW,2013-02-04 13:13:00,
2013-02-04 07:18:00,20.5,15.8,29.74,NNW,338,1.3,5.6,82,0.00,,,0.00,WUHU216HW,2013-02-04 13:18:00,
2013-02-04 07:23:00,20.7,16.3,29.75,North,0,1.3,5.6,83,0.00,,,0.00,WUHU216HW,2013-02-04 13:23:00,
2013-02-04 07:28:00,20.9,16.5,29.75,NNW,338,2.5,4.5,83,0.00,,,0.00,WUHU216HW,2013-02-04 13:28:00,
2013-02-04 07:33:00,20.9,16.5,29.75,North,0,1.6,4.7,83,0.00,,,0.00,WUHU216HW,2013-02-04 13:33:00,
2013-02-04 07:38:00,20.9,16.5,29.76,North,0,1.1,6.3,83,0.00,,,0.00,WUHU216HW,2013-02-04 13:38:00,
2013-02-04 07:43:00,20.9,16.2,29.76,North,0,1.1,6.3,82,0.00,,,0.00,WUHU216HW,2013-02-04 13:43:00,
2013-02-04 07:48:00,20.7,16.0,29.76,North,0,0.7,4.9,82,0.00,,,0.00,WUHU216HW,2013-02-04 13:48:00,
2013-02-04 07:53:00,20.7,16.0,29.77,NNW,338,3.4,4.9,82,0.00,,,0.00,WUHU216HW,2013-02-04 13:53:00,
2013-02-04 07:58:00,20.9,16.2,29.77,North,0,0.9,3.8,82,0.00,,,0.00,WUHU216HW,2013-02-04 13:58:00,
2013-02-04 08:03:00,20.9,16.2,29.77,North,0,2.5,6.9,82,0.00,,,0.00,WUHU216HW,2013-02-04 14:03:00,
2013-02-04 08:08:00,20.7,16.3,29.78,NNW,338,2.5,6.9,83,0.00,,,0.00,WUHU216HW,2013-02-04 14:08:00,
2013-02-04 08:13:00,20.7,16.0,29.78,North,0,1.8,5.8,82,0.00,,,0.00,WUHU216HW,2013-02-04 14:13:00,
2013-02-04 08:18:00,20.7,16.0,29.78,North,0,2.0,5.8,82,0.00,,,0.00,WUHU216HW,2013-02-04 14:18:00,
2013-02-04 08:23:00,20.7,16.0,29.79,North,0,1.6,5.8,82,0.00,,,0.00,WUHU216HW,2013-02-04 14:23:00,
2013-02-04 08:28:00,20.3,15.7,29.79,NNW,338,1.8,6.9,82,0.00,,,0.00,WUHU216HW,2013-02-04 14:28:00,
2013-02-04 08:33:00,20.0,15.3,29.79,North,0,3.1,7.8,82,0.00,,,0.00,WUHU216HW,2013-02-04 14:33:00,
2013-02-04 08:38:00,19.8,15.4,29.79,NNW,338,3.6,8.3,83,0.00,,,0.00,WUHU216HW,2013-02-04 14:38:00,
2013-02-04 08:43:00,19.8,15.4,29.79,North,0,0.9,8.3,83,0.00,,,0.00,WUHU216HW,2013-02-04 14:43:00,
2013-02-04 08:48:00,19.6,15.5,29.80,North,0,4.0,10.1,84,0.00,,,0.00,WUHU216HW,2013-02-04 14:48:00,
2013-02-04 08:53:00,19.6,15.5,29.80,North,0,2.9,10.1,84,0.00,,,0.00,WUHU216HW,2013-02-04 14:53:00,
2013-02-04 08:58:00,19.4,15.3,29.81,North,0,4.5,11.0,84,0.00,,,0.00,WUHU216HW,2013-02-04 14:58:00,
2013-02-04 09:03:00,19.3,15.1,29.82,NNW,338,5.8,11.0,84,0.00,,,0.00,WUHU216HW,2013-02-04 15:03:00,
2013-02-04 09:08:00,19.3,14.9,29.82,NNW,338,1.6,8.7,83,0.00,,,0.00,WUHU216HW,2013-02-04 15:08:00,
2013-02-04 09:13:00,19.1,14.7,29.81,NNW,338,1.1,8.1,83,0.00,,,0.00,WUHU216HW,2013-02-04 15:13:00,
2013-02-04 09:18:00,19.1,14.7,29.81,NNW,338,1.8,8.1,83,0.00,,,0.00,WUHU216HW,2013-02-04 15:18:00,
2013-02-04 09:23:00,18.9,14.5,29.81,North,0,1.8,7.6,83,0.00,,,0.00,WUHU216HW,2013-02-04 15:23:00,
2013-02-04 09:28:00,18.7,14.6,29.81,North,0,2.0,7.6,84,0.00,,,0.00,WUHU216HW,2013-02-04 15:28:00,
2013-02-04 09:33:00,19.1,14.9,29.81,North,0,4.3,8.9,84,0.00,,,0.00,WUHU216HW,2013-02-04 15:33:00,
2013-02-04 09:38:00,19.3,14.9,29.82,North,0,0.9,8.9,83,0.00,,,0.00,WUHU216HW,2013-02-04 15:38:00,
2013-02-04 09:43:00,19.1,14.4,29.82,North,0,3.1,8.5,82,0.00,,,0.00,WUHU216HW,2013-02-04 15:43:00,
2013-02-04 09:48:00,18.5,13.9,29.82,North,0,3.6,12.3,82,0.00,,,0.00,WUHU216HW,2013-02-04 15:48:00,
2013-02-04 09:53:00,18.7,14.3,29.82,North,0,2.0,12.3,83,0.00,,,0.00,WUHU216HW,2013-02-04 15:53:00,
2013-02-04 09:58:00,19.1,14.7,29.83,North,0,4.0,9.6,83,0.00,,,0.00,WUHU216HW,2013-02-04 15:58:00,
2013-02-04 10:03:00,19.4,14.8,29.82,North,0,4.0,7.4,82,0.00,,,0.00,WUHU216HW,2013-02-04 16:03:00,
2013-02-04 10:08:00,19.6,15.2,29.82,NNW,338,1.3,5.1,83,0.00,,,0.00,WUHU216HW,2013-02-04 16:08:00,
2013-02-04 10:13:00,20.0,14.8,29.82,North,0,1.1,5.1,80,0.00,,,0.00,WUHU216HW,2013-02-04 16:13:00,
2013-02-04 10:18:00,19.8,15.1,29.82,NNW,338,2.0,5.8,82,0.00,,,0.00,WUHU216HW,2013-02-04 16:18:00,
2013-02-04 10:23:00,20.2,15.2,29.83,North,0,3.4,5.8,81,0.00,,,0.00,WUHU216HW,2013-02-04 16:23:00,
2013-02-04 10:28:00,20.2,14.9,29.84,North,0,3.4,5.4,80,0.00,,,0.00,WUHU216HW,2013-02-04 16:28:00,
2013-02-04 10:33:00,20.5,15.3,29.85,NNW,338,0.9,3.8,80,0.00,,,0.00,WUHU216HW,2013-02-04 16:33:00,
2013-02-04 10:38:00,20.5,14.7,29.86,North,0,2.5,4.9,78,0.00,,,0.00,WUHU216HW,2013-02-04 16:38:00,
2013-02-04 10:43:00,20.2,14.3,29.85,NNW,338,1.1,5.4,78,0.00,,,0.00,WUHU216HW,2013-02-04 16:43:00,
2013-02-04 10:48:00,19.8,14.3,29.86,NNE,23,5.4,8.1,79,0.00,,,0.00,WUHU216HW,2013-02-04 16:48:00,
2013-02-04 10:53:00,20.0,14.8,29.87,North,0,4.5,9.6,80,0.00,,,0.00,WUHU216HW,2013-02-04 16:53:00,
2013-02-04 10:58:00,20.3,14.9,29.86,North,0,6.3,9.6,79,0.00,,,0.00,WUHU216HW,2013-02-04 16:58:00,
2013-02-04 11:03:00,20.3,14.9,29.86,NNW,338,2.2,8.9,79,0.00,,,0.00,WUHU216HW,2013-02-04 17:03:00,
2013-02-04 11:08:00,20.5,15.0,29.87,NNW,338,1.8,9.8,79,0.00,,,0.00,WUHU216HW,2013-02-04 17:08:00,
2013-02-04 11:13:00,20.7,15.2,29.87,NNW,338,2.5,9.8,79,0.00,,,0.00,WUHU216HW,2013-02-04 17:13:00,
2013-02-04 11:18:00,20.9,14.8,29.88,North,0,1.6,7.8,77,0.00,,,0.00,WUHU216HW,2013-02-04 17:18:00,
2013-02-04 11:23:00,21.1,15.0,29.88,North,0,3.4,8.1,77,0.00,,,0.00,WUHU216HW,2013-02-04 17:23:00,
2013-02-04 11:28:00,21.2,15.4,29.89,North,0,3.6,8.1,78,0.00,,,0.00,WUHU216HW,2013-02-04 17:28:00,
2013-02-04 11:33:00,21.8,15.7,29.89,NW,315,4.0,6.7,77,0.00,,,0.00,WUHU216HW,2013-02-04 17:33:00,
2013-02-04 11:38:00,22.3,16.2,29.89,NNW,338,2.9,6.7,77,0.00,,,0.00,WUHU216HW,2013-02-04 17:38:00,
2013-02-04 11:43:00,22.5,16.4,29.90,NNW,338,5.4,6.5,77,0.00,,,0.00,WUHU216HW,2013-02-04 17:43:00,
2013-02-04 11:48:00,22.9,16.8,29.90,NNW,338,3.1,6.5,77,0.00,,,0.00,WUHU216HW,2013-02-04 17:48:00,
2013-02-04 11:53:00,23.0,16.3,29.90,North,0,1.3,6.5,75,0.00,,,0.00,WUHU216HW,2013-02-04 17:53:00,
2013-02-04 11:58:00,23.0,15.7,29.89,NNW,338,2.0,5.1,73,0.00,,,0.00,WUHU216HW,2013-02-04 17:58:00,
2013-02-04 12:03:00,23.6,16.5,29.89,NNW,338,0.4,4.5,74,0.00,,,0.00,WUHU216HW,2013-02-04 18:03:00,
2013-02-04 12:08:00,23.4,16.0,29.89,North,0,3.4,8.5,73,0.00,,,0.00,WUHU216HW,2013-02-04 18:08:00,
2013-02-04 12:13:00,23.2,15.8,29.88,NNW,338,2.7,8.5,73,0.00,,,0.00,WUHU216HW,2013-02-04 18:13:00,
2013-02-04 12:18:00,23.4,15.4,29.88,North,0,5.4,9.2,71,0.00,,,0.00,WUHU216HW,2013-02-04 18:18:00,
2013-02-04 12:23:00,22.7,15.0,29.88,North,0,4.7,9.2,72,0.00,,,0.00,WUHU216HW,2013-02-04 18:23:00,
2013-02-04 12:28:00,22.5,15.5,29.88,North,0,6.7,8.9,74,0.00,,,0.00,WUHU216HW,2013-02-04 18:28:00,
2013-02-04 12:33:00,22.5,15.5,29.88,North,0,3.8,8.9,74,0.00,,,0.00,WUHU216HW,2013-02-04 18:33:00,
2013-02-04 12:38:00,23.0,16.0,29.87,NNW,338,2.5,6.7,74,0.00,,,0.00,WUHU216HW,2013-02-04 18:38:00,
2013-02-04 12:43:00,23.2,16.1,29.87,NE,45,2.5,5.6,74,0.00,,,0.00,WUHU216HW,2013-02-04 18:43:00,
2013-02-04 12:48:00,23.2,15.8,29.86,North,0,1.1,5.1,73,0.00,,,0.00,WUHU216HW,2013-02-04 18:48:00,
2013-02-04 12:53:00,23.0,15.7,29.86,North,0,4.7,8.5,73,0.00,,,0.00,WUHU216HW,2013-02-04 18:53:00,
2013-02-04 12:58:00,23.6,16.5,29.86,North,0,2.5,8.5,74,0.00,,,0.00,WUHU216HW,2013-02-04 18:58:00,
2013-02-04 13:03:00,24.5,17.0,29.86,NNW,338,4.3,5.8,73,0.00,,,0.00,WUHU216HW,2013-02-04 19:03:00,
2013-02-04 13:08:00,24.3,16.2,29.86,NNE,23,5.4,6.3,71,0.00,,,0.00,WUHU216HW,2013-02-04 19:08:00,
2013-02-04 13:13:00,23.8,16.4,29.86,NNW,338,0.4,7.2,73,0.00,,,0.00,WUHU216HW,2013-02-04 19:13:00,
2013-02-04 13:18:00,24.3,16.8,29.87,North,0,2.0,7.2,73,0.00,,,0.00,WUHU216HW,2013-02-04 19:18:00,
2013-02-04 13:23:00,25.2,17.7,29.86,North,0,1.8,5.6,73,0.00,,,0.00,WUHU216HW,2013-02-04 19:23:00,
2013-02-04 13:28:00,25.4,17.6,29.86,NNW,338,1.8,5.8,72,0.00,,,0.00,WUHU216HW,2013-02-04 19:28:00,
2013-02-04 13:33:00,25.4,17.3,29.86,North,0,3.8,5.8,71,0.00,,,0.00,WUHU216HW,2013-02-04 19:33:00,
2013-02-04 13:38:00,25.0,17.2,29.85,North,0,3.1,6.7,72,0.00,,,0.00,WUHU216HW,2013-02-04 19:38:00,
2013-02-04 13:43:00,24.8,16.8,29.85,North,0,2.0,6.7,71,0.00,,,0.00,WUHU216HW,2013-02-04 19:43:00,
2013-02-04 13:48:00,24.8,17.0,29.85,North,0,1.1,4.9,72,0.00,,,0.00,WUHU216HW,2013-02-04 19:48:00,
2013-02-04 13:53:00,25.0,17.2,29.84,North,0,1.3,5.4,72,0.00,,,0.00,WUHU216HW,2013-02-04 19:53:00,
2013-02-04 13:58:00,24.8,17.0,29.84,North,0,1.8,5.4,72,0.00,,,0.00,WUHU216HW,2013-02-04 19:58:00,
2013-02-04 14:03:00,24.1,16.0,29.83,NNW,338,1.1,8.1,71,0.00,,,0.00,WUHU216HW,2013-02-04 20:03:00,
2013-02-04 14:08:00,23.9,16.2,29.83,North,0,1.1,9.8,72,0.00,,,0.00,WUHU216HW,2013-02-04 20:08:00,
2013-02-04 14:13:00,23.9,16.2,29.83,North,0,1.1,9.8,72,0.00,,,0.00,WUHU216HW,2013-02-04 20:13:00,
2013-02-04 14:18:00,24.1,16.7,29.83,North,0,3.6,6.9,73,0.00,,,0.00,WUHU216HW,2013-02-04 20:18:00,
2013-02-04 14:23:00,23.8,16.4,29.83,NNW,338,0.4,7.4,73,0.00,,,0.00,WUHU216HW,2013-02-04 20:23:00,
2013-02-04 14:28:00,23.9,16.5,29.83,North,0,1.6,7.4,73,0.00,,,0.00,WUHU216HW,2013-02-04 20:28:00,
2013-02-04 14:33:00,23.8,16.0,29.83,North,0,1.6,6.3,72,0.00,,,0.00,WUHU216HW,2013-02-04 20:33:00,
2013-02-04 14:38:00,24.1,16.7,29.84,North,0,0.7,6.3,73,0.00,,,0.00,WUHU216HW,2013-02-04 20:38:00,
2013-02-04 14:43:00,24.3,16.6,29.84,NNW,338,2.2,3.6,72,0.00,,,0.00,WUHU216HW,2013-02-04 20:43:00,
2013-02-04 14:48:00,24.8,16.8,29.85,NNW,338,0.9,3.8,71,0.00,,,0.00,WUHU216HW,2013-02-04 20:48:00,
2013-02-04 14:53:00,25.0,17.2,29.85,NW,315,3.8,4.9,72,0.00,,,0.00,WUHU216HW,2013-02-04 20:53:00,
2013-02-04 14:58:00,25.6,17.7,29.86,NW,315,2.0,4.9,72,0.00,,,0.00,WUHU216HW,2013-02-04 20:58:00,
2013-02-04 15:03:00,25.9,18.1,29.87,NNW,338,2.9,3.8,72,0.00,,,0.00,WUHU216HW,2013-02-04 21:03:00,
2013-02-04 15:08:00,26.1,18.3,29.88,NW,315,2.2,3.4,72,0.00,,,0.00,WUHU216HW,2013-02-04 21:08:00,
2013-02-04 15:13:00,26.3,18.5,29.88,NNW,338,2.2,3.6,72,0.00,,,0.00,WUHU216HW,2013-02-04 21:13:00,
2013-02-04 15:18:00,26.3,18.5,29.89,NNW,338,2.5,4.5,72,0.00,,,0.00,WUHU216HW,2013-02-04 21:18:00,
2013-02-04 15:23:00,26.1,18.3,29.90,NNW,338,1.3,4.5,72,0.00,,,0.00,WUHU216HW,2013-02-04 21:23:00,
2013-02-04 15:28:00,26.1,18.3,29.89,WNW,293,2.0,3.1,72,0.00,,,0.00,WUHU216HW,2013-02-04 21:28:00,
2013-02-04 15:33:00,26.1,18.3,29.89,NNW,338,2.2,2.7,72,0.00,,,0.00,WUHU216HW,2013-02-04 21:33:00,
2013-02-04 15:38:00,26.1,18.3,29.89,NNW,338,3.4,3.8,72,0.00,,,0.00,WUHU216HW,2013-02-04 21:38:00,
2013-02-04 15:43:00,25.7,17.9,29.90,NW,315,2.7,3.8,72,0.00,,,0.00,WUHU216HW,2013-02-04 21:43:00,
2013-02-04 15:48:00,25.6,17.7,29.89,WNW,293,2.0,4.0,72,0.00,,,0.00,WUHU216HW,2013-02-04 21:48:00,
2013-02-04 15:53:00,25.7,17.9,29.90,NW,315,2.5,4.0,72,0.00,,,0.00,WUHU216HW,2013-02-04 21:53:00,
2013-02-04 15:58:00,25.9,18.1,29.89,NNW,338,1.6,3.1,72,0.00,,,0.00,WUHU216HW,2013-02-04 21:58:00,
2013-02-04 16:03:00,26.1,18.3,29.89,NW,315,1.3,3.6,72,0.00,,,0.00,WUHU216HW,2013-02-04 22:03:00,
2013-02-04 16:08:00,25.7,17.9,29.89,NNW,338,2.7,3.6,72,0.00,,,0.00,WUHU216HW,2013-02-04 22:08:00,
2013-02-04 16:13:00,25.4,17.6,29.89,NW,315,2.9,5.1,72,0.00,,,0.00,WUHU216HW,2013-02-04 22:13:00,
2013-02-04 16:18:00,24.8,17.0,29.89,WNW,293,2.0,5.1,72,0.00,,,0.00,WUHU216HW,2013-02-04 22:18:00,
2013-02-04 16:23:00,24.8,16.8,29.88,NW,315,1.1,3.1,71,0.00,,,0.00,WUHU216HW,2013-02-04 22:23:00,
2013-02-04 16:28:00,24.7,16.8,29.88,NNW,338,1.8,2.0,72,0.00,,,0.00,WUHU216HW,2013-02-04 22:28:00,
2013-02-04 16:33:00,24.5,16.8,29.88,NW,315,2.2,2.2,72,0.00,,,0.00,WUHU216HW,2013-02-04 22:33:00,
2013-02-04 16:38:00,24.1,16.4,29.88,WNW,293,2.5,2.5,72,0.00,,,0.00,WUHU216HW,2013-02-04 22:38:00,
2013-02-04 16:43:00,23.9,16.2,29.88,NW,315,1.8,3.1,72,0.00,,,0.00,WUHU216HW,2013-02-04 22:43:00,
2013-02-04 16:48:00,23.6,15.8,29.87,NW,315,0.7,3.1,72,0.00,,,0.00,WUHU216HW,2013-02-04 22:48:00,
2013-02-04 16:53:00,23.6,15.8,29.87,WNW,293,1.6,1.8,72,0.00,,,0.00,WUHU216HW,2013-02-04 22:53:00,
2013-02-04 16:58:00,23.6,15.8,29.87,WNW,293,1.6,1.8,72,0.00,,,0.00,WUHU216HW,2013-02-04 22:58:00,
2013-02-04 17:03:00,23.4,15.7,29.87,NW,315,0.9,1.8,72,0.00,,,0.00,WUHU216HW,2013-02-04 23:03:00,
2013-02-04 17:08:00,23.4,15.7,29.87,WNW,293,1.1,1.6,72,0.00,,,0.00,WUHU216HW,2013-02-04 23:08:00,
2013-02-04 17:13:00,23.0,15.4,29.87,NW,315,0.9,1.8,72,0.00,,,0.00,WUHU216HW,2013-02-04 23:13:00,
2013-02-04 17:18:00,22.9,15.2,29.87,NW,315,0.9,1.8,72,0.00,,,0.00,WUHU216HW,2013-02-04 23:18:00,
2013-02-04 17:23:00,22.9,15.5,29.87,NW,315,0.4,1.3,73,0.00,,,0.00,WUHU216HW,2013-02-04 23:23:00,
2013-02-04 17:28:00,22.7,15.3,29.87,NW,315,0.9,1.3,73,0.00,,,0.00,WUHU216HW,2013-02-04 23:28:00,
2013-02-04 17:33:00,22.7,15.3,29.86,NW,315,0.0,1.3,73,0.00,,,0.00,WUHU216HW,2013-02-04 23:33:00,
2013-02-04 17:38:00,22.5,15.1,29.86,NW,315,0.4,0.9,73,0.00,,,0.00,WUHU216HW,2013-02-04 23:38:00,
2013-02-04 17:43:00,22.3,14.9,29.86,NW,315,0.0,0.9,73,0.00,,,0.00,WUHU216HW,2013-02-04 23:43:00,
2013-02-04 17:48:00,22.1,14.8,29.87,NW,315,0.0,0.4,73,0.00,,,0.00,WUHU216HW,2013-02-04 23:48:00,
2013-02-04 17:53:00,22.0,15.0,29.87,NW,315,0.4,0.4,74,0.00,,,0.00,WUHU216HW,2013-02-04 23:53:00,
2013-02-04 17:58:00,22.0,15.0,29.87,NW,315,0.4,0.4,74,0.00,,,0.00,WUHU216HW,2013-02-04 23:58:00,
2013-02-04 18:03:00,22.0,15.0,29.87,NW,315,0.7,0.7,74,0.00,,,0.00,WUHU216HW,2013-02-05 00:03:00,
2013-02-04 18:08:00,22.0,15.0,29.87,WNW,293,0.4,0.9,74,0.00,,,0.00,WUHU216HW,2013-02-05 00:08:00,
2013-02-04 18:13:00,21.8,14.8,29.87,WNW,293,0.0,1.1,74,0.00,,,0.00,WUHU216HW,2013-02-05 00:13:00,
2013-02-04 18:18:00,21.6,14.6,29.87,WNW,293,0.0,1.1,74,0.00,,,0.00,WUHU216HW,2013-02-05 00:18:00,
2013-02-04 18:23:00,21.4,14.4,29.87,WNW,293,0.0,0.4,74,0.00,,,0.00,WUHU216HW,2013-02-05 00:23:00,
2013-02-04 18:28:00,21.4,14.4,29.87,WNW,293,0.4,0.4,74,0.00,,,0.00,WUHU216HW,2013-02-05 00:28:00,
2013-02-04 18:33:00,21.4,14.4,29.87,WNW,293,0.0,0.4,74,0.00,,,0.00,WUHU216HW,2013-02-05 00:33:00,
2013-02-04 18:38:00,21.4,14.7,29.88,WNW,293,0.4,1.1,75,0.00,,,0.00,WUHU216HW,2013-02-05 00:38:00,
2013-02-04 18:43:00,21.2,14.5,29.88,NW,315,1.1,1.1,75,0.00,,,0.00,WUHU216HW,2013-02-05 00:43:00,
2013-02-04 18:48:00,21.2,14.5,29.88,NW,315,0.0,1.1,75,0.00,,,0.00,WUHU216HW,2013-02-05 00:48:00,
2013-02-04 18:53:00,21.2,14.5,29.88,NW,315,0.0,1.1,75,0.00,,,0.00,WUHU216HW,2013-02-05 00:53:00,
2013-02-04 18:58:00,21.2,14.5,29.88,NW,315,0.0,0.4,75,0.00,,,0.00,WUHU216HW,2013-02-05 00:58:00,
2013-02-04 19:03:00,21.2,14.5,29.88,NW,315,0.0,0.4,75,0.00,,,0.00,WUHU216HW,2013-02-05 01:03:00,
2013-02-04 19:08:00,21.1,14.1,29.88,NW,315,0.0,0.0,74,0.00,,,0.00,WUHU216HW,2013-02-05 01:08:00,
2013-02-04 19:13:00,21.1,14.1,29.88,NW,315,0.0,0.0,74,0.00,,,0.00,WUHU216HW,2013-02-05 01:13:00,
2013-02-04 19:18:00,20.9,13.9,29.88,NW,315,0.0,0.0,74,0.00,,,0.00,WUHU216HW,2013-02-05 01:18:00,
2013-02-04 19:23:00,20.7,13.7,29.88,NW,315,0.0,0.0,74,0.00,,,0.00,WUHU216HW,2013-02-05 01:23:00,
2013-02-04 19:28:00,20.5,13.8,29.88,NW,315,0.0,0.0,75,0.00,,,0.00,WUHU216HW,2013-02-05 01:28:00,
2013-02-04 19:33:00,20.2,13.2,29.88,NW,315,0.0,0.0,74,0.00,,,0.00,WUHU216HW,2013-02-05 01:33:00,
2013-02-04 19:38:00,20.0,13.0,29.88,NNW,338,0.0,0.0,74,0.00,,,0.00,WUHU216HW,2013-02-05 01:38:00,
2013-02-04 19:43:00,19.8,12.8,29.88,NNW,338,0.0,0.0,74,0.00,,,0.00,WUHU216HW,2013-02-05 01:43:00,
2013-02-04 19:48:00,19.8,12.8,29.88,NNW,338,0.0,0.0,74,0.00,,,0.00,WUHU216HW,2013-02-05 01:48:00,
2013-02-04 19:53:00,19.8,12.8,29.87,NNW,338,0.0,0.0,74,0.00,,,0.00,WUHU216HW,2013-02-05 01:53:00,
2013-02-04 19:58:00,19.6,12.9,29.87,NW,315,0.0,0.0,75,0.00,,,0.00,WUHU216HW,2013-02-05 01:58:00,
2013-02-04 20:03:00,19.3,12.5,29.87,ESE,113,0.0,0.4,75,0.00,,,0.00,WUHU216HW,2013-02-05 02:03:00,
2013-02-04 20:08:00,19.1,12.3,29.88,ESE,113,0.0,0.4,75,0.00,,,0.00,WUHU216HW,2013-02-05 02:08:00,
2013-02-04 20:13:00,18.9,12.5,29.87,ESE,113,0.0,0.2,76,0.00,,,0.00,WUHU216HW,2013-02-05 02:13:00,
2013-02-04 20:18:00,18.5,12.2,29.86,SE,135,0.9,1.1,76,0.00,,,0.00,WUHU216HW,2013-02-05 02:18:00,
2013-02-04 20:23:00,18.0,11.9,29.86,SE,135,0.4,1.1,77,0.00,,,0.00,WUHU216HW,2013-02-05 02:23:00,
2013-02-04 20:28:00,17.6,11.5,29.86,SE,135,0.9,1.1,77,0.00,,,0.00,WUHU216HW,2013-02-05 02:28:00,
2013-02-04 20:33:00,17.3,11.5,29.86,SE,135,0.4,0.9,78,0.00,,,0.00,WUHU216HW,2013-02-05 02:33:00,
2013-02-04 20:38:00,17.3,11.5,29.86,SE,135,0.4,0.9,78,0.00,,,0.00,WUHU216HW,2013-02-05 02:38:00,
2013-02-04 20:43:00,17.1,11.3,29.86,SE,135,0.0,0.9,78,0.00,,,0.00,WUHU216HW,2013-02-05 02:43:00,
2013-02-04 20:48:00,17.1,11.3,29.86,SE,135,0.2,0.9,78,0.00,,,0.00,WUHU216HW,2013-02-05 02:48:00,
2013-02-04 20:53:00,17.1,11.3,29.85,SE,135,0.7,1.1,78,0.00,,,0.00,WUHU216HW,2013-02-05 02:53:00,
2013-02-04 20:58:00,16.9,11.5,29.85,SE,135,0.7,1.1,79,0.00,,,0.00,WUHU216HW,2013-02-05 02:58:00,
2013-02-04 21:03:00,16.9,11.5,29.85,SE,135,0.4,1.1,79,0.00,,,0.00,WUHU216HW,2013-02-05 03:03:00,
2013-02-04 21:08:00,16.7,11.4,29.85,SE,135,0.2,0.9,79,0.00,,,0.00,WUHU216HW,2013-02-05 03:08:00,
2013-02-04 21:13:00,16.7,11.4,29.85,SE,135,0.7,0.7,79,0.00,,,0.00,WUHU216HW,2013-02-05 03:13:00,
2013-02-04 21:18:00,16.6,11.2,29.84,SSE,158,1.1,1.1,79,0.00,,,0.00,WUHU216HW,2013-02-05 03:18:00,
2013-02-04 21:23:00,16.4,11.0,29.84,SE,135,1.1,1.3,79,0.00,,,0.00,WUHU216HW,2013-02-05 03:23:00,
2013-02-04 21:28:00,16.2,10.8,29.84,SE,135,0.9,1.3,79,0.00,,,0.00,WUHU216HW,2013-02-05 03:28:00,
2013-02-04 21:33:00,15.8,10.8,29.83,SE,135,0.9,1.1,80,0.00,,,0.00,WUHU216HW,2013-02-05 03:33:00,
2013-02-04 21:38:00,15.8,10.8,29.83,SE,135,1.1,1.1,80,0.00,,,0.00,WUHU216HW,2013-02-05 03:38:00,
2013-02-04 21:43:00,15.7,10.6,29.82,SE,135,1.1,1.3,80,0.00,,,0.00,WUHU216HW,2013-02-05 03:43:00,
2013-02-04 21:48:00,15.7,10.6,29.83,SE,135,0.4,1.3,80,0.00,,,0.00,WUHU216HW,2013-02-05 03:48:00,
2013-02-04 21:53:00,15.7,10.6,29.83,SE,135,0.4,1.1,80,0.00,,,0.00,WUHU216HW,2013-02-05 03:53:00,
2013-02-04 21:58:00,15.8,10.8,29.82,SSE,158,1.1,1.1,80,0.00,,,0.00,WUHU216HW,2013-02-05 03:58:00,
2013-02-04 22:03:00,16.0,11.0,29.83,SE,135,2.7,2.7,80,0.00,,,0.00,WUHU216HW,2013-02-05 04:03:00,
2013-02-04 22:08:00,16.2,11.3,29.83,SSE,158,1.1,2.7,81,0.00,,,0.00,WUHU216HW,2013-02-05 04:08:00,
2013-02-04 22:13:00,16.2,11.3,29.84,SE,135,0.9,2.7,81,0.00,,,0.00,WUHU216HW,2013-02-05 04:13:00,
2013-02-04 22:18:00,16.4,11.5,29.84,SSE,158,0.0,1.3,81,0.00,,,0.00,WUHU216HW,2013-02-05 04:18:00,
2013-02-04 22:23:00,16.7,11.9,29.83,SE,135,0.0,1.1,81,0.00,,,0.00,WUHU216HW,2013-02-05 04:23:00,
2013-02-04 22:28:00,16.9,12.1,29.84,SSE,158,0.4,0.4,81,0.00,,,0.00,WUHU216HW,2013-02-05 04:28:00,
2013-02-04 22:33:00,16.9,11.8,29.84,South,180,1.8,1.8,80,0.00,,,0.00,WUHU216HW,2013-02-05 04:33:00,
2013-02-04 22:38:00,17.1,12.0,29.84,SSE,158,1.1,1.8,80,0.00,,,0.00,WUHU216HW,2013-02-05 04:38:00,
2013-02-04 22:43:00,16.9,11.8,29.85,SSE,158,0.7,2.2,80,0.00,,,0.00,WUHU216HW,2013-02-05 04:43:00,
2013-02-04 22:48:00,17.1,12.0,29.85,SSE,158,1.1,2.2,80,0.00,,,0.00,WUHU216HW,2013-02-05 04:48:00,
2013-02-04 22:53:00,17.1,12.0,29.85,SSE,158,1.6,1.8,80,0.00,,,0.00,WUHU216HW,2013-02-05 04:53:00,
2013-02-04 22:58:00,17.1,12.0,29.85,SSE,158,1.1,1.6,80,0.00,,,0.00,WUHU216HW,2013-02-05 04:58:00,
2013-02-04 23:00:00,17.1,12.0,29.85,South,180,1.1,1.6,80,0.00,,,0.00,WUHU216HW,2013-02-05 05:00:00,
2013-02-04 23:05:00,17.5,12.2,29.85,SE,135,1.6,1.8,80,0.00,,,0.00,WUHU216HW,2013-02-05 05:05:00,
2013-02-04 23:10:00,17.6,12.4,29.85,South,180,0.7,1.8,80,0.00,,,0.00,WUHU216HW,2013-02-05 05:10:00,
2013-02-04 23:15:00,17.6,12.2,29.85,SSE,158,1.8,2.2,79,0.00,,,0.00,WUHU216HW,2013-02-05 05:15:00,
2013-02-04 23:20:00,17.6,12.2,29.85,SE,135,2.5,2.5,79,0.00,,,0.00,WUHU216HW,2013-02-05 05:20:00,
2013-02-04 23:25:00,17.6,12.2,29.85,SW,225,1.1,2.5,79,0.00,,,0.00,WUHU216HW,2013-02-05 05:25:00,
2013-02-04 23:30:00,17.6,12.2,29.85,SSW,203,1.3,2.5,79,0.00,,,0.00,WUHU216HW,2013-02-05 05:30:00,
2013-02-04 23:35:00,17.6,12.2,29.85,SSW,203,0.4,1.6,79,0.00,,,0.00,WUHU216HW,2013-02-05 05:35:00,
2013-02-04 23:40:00,17.8,12.3,29.85,South,180,1.1,1.6,79,0.00,,,0.00,WUHU216HW,2013-02-05 05:40:00,
2013-02-04 23:45:00,17.8,12.3,29.84,SSE,158,1.6,2.5,79,0.00,,,0.00,WUHU216HW,2013-02-05 05:45:00,
2013-02-04 23:50:00,17.8,12.3,29.84,SSE,158,0.0,2.5,79,0.00,,,0.00,WUHU216HW,2013-02-05 05:50:00,
2013-02-04 23:55:00,18.0,12.5,29.84,SE,135,1.1,1.6,79,0.00,,,0.00,WUHU216HW,2013-02-05 05:55:00,